Time;durP1;ratioP1;P1;durP2;ratioP2;P2;SDS_P1;SDS_P2;PMS_P1;PMS_P2;Temp;Humidity;BMP_temperature;BMP_pressure;BME280_temperature;BME280_humidity;BME280_pressure;Samples;Min_cycle;Max_cycle;Signal;HPM_P1;HPM_P2
2022/04/15 00:02:17;;;;;;;18.15;8.45;;;;;;;8.24;77.90;102376.22;5091683;28;20036;-69
2022/04/15 00:04:42;;;;;;;15.05;8.93;;;;;;;8.21;78.05;102377.25;5100524;28;20024;-72
2022/04/15 00:07:08;;;;;;;16.88;9.50;;;;;;;8.17;78.75;102381.00;5099998;28;20032;-72
2022/04/15 00:09:35;;;;;;;16.75;8.65;;;;;;;8.12;78.54;102377.59;5100018;28;20107;-72
2022/04/15 00:12:06;;;;;;;14.90;8.55;;;;;;;8.08;78.01;102378.63;5098738;28;20467;-69
2022/04/15 00:14:32;;;;;;;16.23;9.00;;;;;;;8.03;79.00;102377.94;5111778;28;20510;-74
2022/04/15 00:16:58;;;;;;;15.45;9.25;;;;;;;7.98;78.46;102371.81;5100183;28;20015;-72
2022/04/15 00:19:23;;;;;;;14.23;8.80;;;;;;;7.97;78.43;102375.44;5101528;28;20059;-69
2022/04/15 00:21:49;;;;;;;14.80;9.38;;;;;;;7.92;78.30;102373.78;5104027;28;20475;-67
2022/04/15 00:24:14;;;;;;;13.02;8.93;;;;;;;7.88;78.65;102371.22;5096583;28;20379;-71
2022/04/15 00:26:39;;;;;;;14.35;8.25;;;;;;;7.85;78.78;102374.94;5096556;28;20031;-69
2022/04/15 00:29:06;;;;;;;13.57;8.35;;;;;;;7.82;79.39;102376.88;5112028;28;20027;-72
2022/04/15 00:31:32;;;;;;;17.85;9.50;;;;;;;7.77;79.38;102378.88;5097150;27;20047;-68
2022/04/15 00:33:58;;;;;;;18.95;9.68;;;;;;;7.75;79.21;102380.75;5104508;28;20043;-76
2022/04/15 00:36:23;;;;;;;15.52;8.35;;;;;;;7.74;78.62;102384.38;5106112;28;20117;-69
2022/04/15 00:38:48;;;;;;;16.55;8.80;;;;;;;7.73;79.24;102397.06;5108988;28;20094;-75
2022/04/15 00:41:15;;;;;;;15.40;8.85;;;;;;;7.72;78.49;102391.69;5096765;28;20039;-72
2022/04/15 00:43:40;;;;;;;14.73;8.80;;;;;;;7.63;78.74;102384.78;5109843;28;20453;-73
2022/04/15 00:46:07;;;;;;;18.77;10.52;;;;;;;7.62;79.86;102391.16;5108802;28;20099;-68
2022/04/15 00:48:35;;;;;;;16.88;9.70;;;;;;;7.59;79.45;102400.25;5106945;28;20037;-66
2022/04/15 00:51:00;;;;;;;17.60;10.43;;;;;;;7.54;79.86;102404.06;5108215;28;20036;-76
2022/04/15 00:53:29;;;;;;;20.92;11.10;;;;;;;7.50;79.58;102396.97;5110287;28;20496;-69
2022/04/15 00:55:57;;;;;;;21.25;10.75;;;;;;;7.43;79.56;102399.03;5104346;28;20432;-70
2022/04/15 00:58:25;;;;;;;20.27;11.57;;;;;;;7.39;79.65;102398.25;5104303;28;20579;-68
2022/04/15 01:00:53;;;;;;;21.23;11.05;;;;;;;7.35;79.77;102401.09;5102818;28;20126;-75
2022/04/15 01:03:21;;;;;;;20.17;10.88;;;;;;;7.30;80.66;102400.38;5085780;28;20494;-69
2022/04/15 01:05:49;;;;;;;17.17;11.20;;;;;;;7.23;80.88;102398.81;5095670;28;20078;-67
2022/04/15 01:08:21;;;;;;;23.02;14.25;;;;;;;7.17;80.76;102410.72;5111280;28;20092;-68
2022/04/15 01:10:47;;;;;;;21.92;10.73;;;;;;;7.13;80.44;102403.63;5096274;28;20055;-68
2022/04/15 01:13:13;;;;;;;21.13;11.55;;;;;;;7.11;80.26;102403.69;5094160;28;20468;-75
2022/04/15 01:15:40;;;;;;;20.52;12.45;;;;;;;7.05;80.71;102403.91;5102286;28;20032;-76
2022/04/15 01:18:06;;;;;;;23.17;11.70;;;;;;;7.04;80.73;102412.97;5108654;28;20069;-67
2022/04/15 01:20:31;;;;;;;24.67;12.00;;;;;;;7.01;79.83;102406.75;5098210;28;20433;-69
2022/04/15 01:23:07;;;;;;;20.13;11.32;;;;;;;6.99;80.02;102412.19;5073333;28;20071;-72
2022/04/15 01:25:32;;;;;;;21.80;11.45;;;;;;;6.95;79.68;102410.56;5089512;28;20036;-69
2022/04/15 01:27:58;;;;;;;15.27;9.50;;;;;;;6.98;79.36;102414.97;5091183;28;20031;-76
2022/04/15 01:30:23;;;;;;;15.57;7.72;;;;;;;6.98;79.05;102421.25;5089347;28;20039;-75
2022/04/15 01:32:49;;;;;;;14.63;8.85;;;;;;;6.99;79.41;102420.31;5072697;28;20048;-75
2022/04/15 01:35:16;;;;;;;14.15;8.45;;;;;;;6.95;79.85;102423.16;5100450;28;20411;-73
2022/04/15 01:37:43;;;;;;;17.45;9.98;;;;;;;6.89;79.88;102419.72;5110686;28;20118;-70
2022/04/15 01:40:10;;;;;;;19.98;10.00;;;;;;;6.86;80.50;102419.84;5104055;28;20490;-73
2022/04/15 01:42:38;;;;;;;13.38;9.07;;;;;;;6.82;79.72;102423.59;5098907;28;20052;-68
2022/04/15 01:45:05;;;;;;;15.70;8.70;;;;;;;6.78;79.53;102415.59;5103767;28;20118;-72
2022/04/15 01:47:30;;;;;;;15.73;8.00;;;;;;;6.73;79.53;102417.56;5077457;28;20016;-67
2022/04/15 01:49:56;;;;;;;15.73;9.32;;;;;;;6.69;80.20;102422.19;5108723;28;20123;-73
2022/04/15 01:52:21;;;;;;;17.55;9.68;;;;;;;6.68;80.38;102420.44;5110583;28;20031;-68
2022/04/15 01:54:47;;;;;;;14.25;8.68;;;;;;;6.68;79.68;102430.38;5109372;28;20028;-69
2022/04/15 01:57:14;;;;;;;16.42;8.55;;;;;;;6.66;80.07;102430.38;5098445;28;20071;-69
2022/04/15 01:59:39;;;;;;;13.27;8.23;;;;;;;6.64;80.53;102433.16;5110074;28;20047;-72
2022/04/15 02:02:06;;;;;;;14.35;8.85;;;;;;;6.62;80.69;102436.81;5103045;28;20359;-67
2022/04/15 02:04:32;;;;;;;16.42;10.30;;;;;;;6.57;80.40;102439.66;5098114;28;20114;-76
2022/04/15 02:06:58;;;;;;;14.95;8.73;;;;;;;6.53;79.92;102437.13;5104351;28;20035;-69
2022/04/15 02:09:23;;;;;;;13.77;8.63;;;;;;;6.48;80.29;102437.25;5108755;28;20394;-72
2022/04/15 02:11:49;;;;;;;12.50;7.95;;;;;;;6.44;80.57;102440.97;5103450;28;20508;-67
2022/04/15 02:14:15;;;;;;;15.30;8.63;;;;;;;6.42;80.95;102440.13;5105779;28;20036;-75
2022/04/15 02:16:41;;;;;;;15.43;8.10;;;;;;;6.38;80.71;102433.91;5101321;28;20118;-67
2022/04/15 02:19:07;;;;;;;15.20;9.05;;;;;;;6.39;80.72;102442.94;5105068;28;20118;-67
2022/04/15 02:21:32;;;;;;;17.55;9.65;;;;;;;6.37;80.87;102447.50;5110068;28;20028;-68
2022/04/15 02:23:58;;;;;;;16.48;9.45;;;;;;;6.35;80.48;102442.13;5110385;28;20043;-67
2022/04/15 02:26:24;;;;;;;17.15;10.35;;;;;;;6.35;80.53;102446.66;5086403;28;20532;-68
2022/04/15 02:28:49;;;;;;;15.25;9.07;;;;;;;6.32;80.50;102442.22;5090913;28;20403;-72
2022/04/15 02:31:14;;;;;;;20.50;10.52;;;;;;;6.32;81.00;102453.03;5100146;28;20794;-72
2022/04/15 02:33:40;;;;;;;17.45;10.68;;;;;;;6.30;80.73;102451.31;5107079;28;20413;-67
2022/04/15 02:36:05;;;;;;;15.55;10.55;;;;;;;6.30;80.88;102462.13;5104337;28;20024;-76
2022/04/15 02:38:30;;;;;;;15.93;9.00;;;;;;;6.28;80.49;102461.25;5108709;28;20106;-69
2022/04/15 02:40:56;;;;;;;16.63;9.68;;;;;;;6.27;80.48;102463.09;5104253;28;20032;-71
2022/04/15 02:43:25;;;;;;;21.38;10.55;;;;;;;6.26;81.29;102460.44;5111273;28;20031;-68
2022/04/15 02:45:51;;;;;;;16.35;9.95;;;;;;;6.23;80.92;102458.69;5108371;28;20036;-72
2022/04/15 02:48:16;;;;;;;17.77;10.68;;;;;;;6.19;81.89;102462.41;5110996;28;20107;-72
2022/04/15 02:50:42;;;;;;;17.92;10.57;;;;;;;6.16;80.92;102457.09;5103134;28;20114;-68
2022/04/15 02:53:07;;;;;;;16.65;9.68;;;;;;;6.11;81.60;102462.66;5109850;28;20161;-69
2022/04/15 02:55:33;;;;;;;13.18;9.10;;;;;;;6.10;81.07;102460.84;5101982;28;20047;-72
2022/04/15 02:57:58;;;;;;;14.18;9.02;;;;;;;6.11;81.18;102459.06;5109513;28;20119;-67
2022/04/15 03:00:23;;;;;;;16.27;8.82;;;;;;;6.08;81.29;102462.72;5111880;27;20031;-69
2022/04/15 03:02:49;;;;;;;16.10;10.07;;;;;;;6.10;80.48;102459.97;5114211;28;20035;-68
2022/04/15 03:05:14;;;;;;;21.35;12.05;;;;;;;6.06;81.70;102452.88;5099158;28;20047;-69
2022/04/15 03:07:40;;;;;;;23.15;12.10;;;;;;;6.03;81.74;102463.78;5112214;28;20020;-68
2022/04/15 03:10:06;;;;;;;18.63;11.18;;;;;;;6.00;82.22;102466.56;5124591;27;20414;-73
2022/04/15 03:12:36;;;;;;;15.40;10.15;;;;;;;5.93;81.66;102460.44;5110066;27;20505;-76
2022/04/15 03:15:06;;;;;;;18.10;10.60;;;;;;;5.91;81.78;102461.38;5099896;28;20151;-68
2022/04/15 03:17:33;;;;;;;18.67;10.90;;;;;;;5.92;82.79;102461.34;5111977;28;20495;-69
2022/04/15 03:20:02;;;;;;;21.45;12.35;;;;;;;5.88;83.07;102454.25;5105507;28;20444;-67
2022/04/15 03:22:28;;;;;;;23.27;13.18;;;;;;;5.84;82.87;102456.16;5108326;28;20471;-68
2022/04/15 03:24:53;;;;;;;25.45;12.23;;;;;;;5.83;83.60;102459.78;5113329;28;20088;-73
2022/04/15 03:27:19;;;;;;;29.05;13.15;;;;;;;5.77;83.62;102459.91;5099315;28;20101;-69
2022/04/15 03:29:44;;;;;;;24.13;13.98;;;;;;;5.73;84.26;102458.22;5111351;28;20037;-69
2022/04/15 03:32:10;;;;;;;28.20;13.10;;;;;;;5.75;83.44;102459.09;5111133;28;20488;-72
2022/04/15 03:34:36;;;;;;;24.63;12.18;;;;;;;5.73;83.33;102465.44;5110498;28;20410;-68
2022/04/15 03:37:03;;;;;;;19.70;10.05;;;;;;;5.72;81.80;102472.66;5111761;28;20027;-78
2022/04/15 03:39:29;;;;;;;19.55;10.85;;;;;;;5.69;83.53;102469.13;5113075;28;20023;-69
2022/04/15 03:41:54;;;;;;;19.67;10.05;;;;;;;5.63;84.29;102467.50;5100732;28;20494;-68
2022/04/15 03:44:20;;;;;;;21.40;10.55;;;;;;;5.61;83.38;102478.34;5103095;28;20039;-72
2022/04/15 03:46:45;;;;;;;19.90;10.20;;;;;;;5.57;83.08;102468.53;5110157;28;20020;-77
2022/04/15 03:49:10;;;;;;;56.78;18.65;;;;;;;5.73;88.96;102482.53;5107374;28;20043;-69
2022/04/15 03:51:36;;;;;;;80.38;17.80;;;;;;;5.80;89.53;102477.88;5111428;28;20114;-69
2022/04/15 03:54:01;;;;;;;49.80;16.15;;;;;;;5.88;89.70;102481.25;5112929;28;20118;-73
2022/04/15 03:56:27;;;;;;;139.35;19.58;;;;;;;5.97;90.37;102486.44;5102678;28;20421;-70
2022/04/15 03:58:52;;;;;;;112.65;18.30;;;;;;;5.97;89.75;102488.25;5113105;27;20047;-72
2022/04/15 04:01:18;;;;;;;35.63;15.90;;;;;;;5.99;88.28;102489.97;5113316;27;20494;-70
2022/04/15 04:03:43;;;;;;;115.95;18.27;;;;;;;6.06;90.24;102488.00;5109538;28;20061;-72
2022/04/15 04:06:08;;;;;;;66.55;17.55;;;;;;;6.14;90.78;102491.38;5112333;28;20031;-72
2022/04/15 04:08:34;;;;;;;110.28;19.05;;;;;;;6.24;90.97;102502.81;5105810;28;20042;-70
2022/04/15 04:10:59;;;;;;;137.85;19.85;;;;;;;6.26;91.25;102503.69;5094870;28;20078;-70
2022/04/15 04:13:24;;;;;;;88.22;19.27;;;;;;;6.34;91.35;102502.53;5108088;28;20035;-72
2022/04/15 04:15:49;;;;;;;111.88;20.70;;;;;;;6.41;91.71;102496.94;5110397;28;20023;-76
2022/04/15 04:18:17;;;;;;;108.35;20.52;;;;;;;6.43;92.47;102501.38;5112179;28;20035;-76
2022/04/15 04:20:43;;;;;;;64.20;19.42;;;;;;;6.43;92.52;102501.38;5098354;28;20118;-70
2022/04/15 04:23:08;;;;;;;115.57;21.75;;;;;;;6.43;93.09;102503.19;5106304;28;20134;-70
2022/04/15 04:25:34;;;;;;;77.03;17.88;;;;;;;6.41;92.71;102500.53;5108407;28;20453;-72
2022/04/15 04:27:59;;;;;;;56.38;17.40;;;;;;;6.42;92.57;102499.59;5100444;28;20028;-69
2022/04/15 04:30:24;;;;;;;83.95;15.82;;;;;;;6.45;92.38;102514.84;5104005;28;20074;-72
2022/04/15 04:32:50;;;;;;;43.08;15.13;;;;;;;6.43;91.96;102514.88;5110224;28;20110;-70
2022/04/15 04:35:18;;;;;;;60.85;16.45;;;;;;;6.43;92.08;102522.09;5095762;28;20471;-76
2022/04/15 04:37:44;;;;;;;66.22;15.70;;;;;;;6.37;92.40;102521.34;5111555;28;20050;-74
2022/04/15 04:40:10;;;;;;;91.18;15.20;;;;;;;6.31;92.62;102518.84;5109612;28;20057;-70
2022/04/15 04:42:35;;;;;;;69.05;13.43;;;;;;;6.27;92.66;102527.94;5107833;28;20031;-67
2022/04/15 04:45:04;;;;;;;77.10;14.55;;;;;;;6.23;93.05;102528.06;5090880;28;20518;-70
2022/04/15 04:47:30;;;;;;;65.40;15.07;;;;;;;6.21;93.07;102529.94;5107447;28;20129;-70
2022/04/15 04:49:55;;;;;;;41.78;13.52;;;;;;;6.23;92.69;102539.78;5107233;28;20024;-71
2022/04/15 04:52:24;;;;;;;82.18;13.93;;;;;;;6.26;93.07;102541.50;5111819;28;20133;-74
2022/04/15 04:54:50;;;;;;;70.97;12.77;;;;;;;6.26;92.78;102538.81;5104840;28;20027;-70
2022/04/15 04:57:16;;;;;;;52.25;13.43;;;;;;;6.28;92.79;102542.34;5079891;28;20032;-68
2022/04/15 04:59:41;;;;;;;62.63;14.77;;;;;;;6.27;93.35;102543.28;5103484;28;20077;-70
2022/04/15 05:02:09;;;;;;;58.85;14.93;;;;;;;6.25;93.19;102548.75;5108834;28;20497;-67
2022/04/15 05:04:39;;;;;;;81.18;15.88;;;;;;;6.28;93.83;102551.34;5108678;28;20091;-69
2022/04/15 05:07:05;;;;;;;77.53;15.77;;;;;;;6.30;93.32;102552.19;5111075;28;20369;-68
2022/04/15 05:09:30;;;;;;;84.53;15.68;;;;;;;6.29;93.70;102554.91;5096903;28;20040;-74
2022/04/15 05:11:55;;;;;;;81.88;14.55;;;;;;;6.34;93.52;102559.31;5093044;28;20035;-69
2022/04/15 05:14:21;;;;;;;66.40;14.65;;;;;;;6.31;94.08;102555.78;5094599;28;20565;-69
2022/04/15 05:16:46;;;;;;;118.00;15.95;;;;;;;6.36;93.73;102565.53;5088262;28;20396;-71
2022/04/15 05:19:12;;;;;;;94.25;17.15;;;;;;;6.37;94.22;102566.41;5101795;28;20457;-67
2022/04/15 05:21:38;;;;;;;90.53;17.63;;;;;;;6.41;94.19;102565.41;5089036;28;20036;-76
2022/04/15 05:24:05;;;;;;;63.08;15.52;;;;;;;6.44;93.92;102573.44;5096069;28;20038;-69
2022/04/15 05:26:33;;;;;;;56.45;15.80;;;;;;;6.49;94.42;102582.31;5100685;28;20531;-69
2022/04/15 05:28:59;;;;;;;50.78;15.10;;;;;;;6.53;94.41;102585.84;5085767;28;20146;-74
2022/04/15 05:31:24;;;;;;;34.50;15.85;;;;;;;6.56;93.92;102580.31;5086518;28;20115;-71
2022/04/15 05:33:50;;;;;;;34.13;15.55;;;;;;;6.57;94.12;102582.97;5090926;28;20043;-70
2022/04/15 05:36:16;;;;;;;32.67;16.50;;;;;;;6.60;94.37;102587.41;5073724;28;20039;-75
2022/04/15 05:38:41;;;;;;;40.90;16.48;;;;;;;6.57;94.48;102588.38;5089186;28;20024;-71
2022/04/15 05:41:07;;;;;;;32.80;14.20;;;;;;;6.62;94.49;102591.88;5086799;28;20035;-68
2022/04/15 05:43:32;;;;;;;36.67;15.98;;;;;;;6.69;94.51;102602.50;5087714;28;20139;-69
2022/04/15 05:45:57;;;;;;;31.98;15.93;;;;;;;6.69;94.58;102597.97;5088459;28;20031;-74
2022/04/15 05:48:23;;;;;;;41.03;16.02;;;;;;;6.76;94.28;102605.00;5071769;28;20032;-74
2022/04/15 05:50:48;;;;;;;28.27;14.18;;;;;;;6.80;94.16;102611.19;5089180;28;20035;-67
2022/04/15 05:53:14;;;;;;;25.85;13.48;;;;;;;6.83;93.81;102613.81;5086850;28;20126;-71
2022/04/15 05:55:39;;;;;;;34.42;15.18;;;;;;;6.81;93.43;102618.41;5090755;28;20016;-71
2022/04/15 05:58:05;;;;;;;33.88;16.42;;;;;;;6.86;93.77;102621.84;5087291;28;20036;-69
2022/04/15 06:00:31;;;;;;;27.95;14.65;;;;;;;6.88;93.96;102628.09;5086113;28;20069;-74
2022/04/15 06:02:57;;;;;;;34.15;15.88;;;;;;;6.88;93.61;102618.16;5080771;28;20491;-73
2022/04/15 06:05:24;;;;;;;31.70;13.77;;;;;;;6.93;94.22;102631.56;5091257;28;20036;-77
2022/04/15 06:07:50;;;;;;;28.77;14.57;;;;;;;6.94;93.52;102629.75;5100033;28;20039;-67
2022/04/15 06:10:16;;;;;;;25.52;13.80;;;;;;;6.96;93.24;102630.59;5095120;28;20415;-69
2022/04/15 06:15:31;;;;;;;33.92;14.43;;;;;;;6.88;93.89;102634.41;5092205;28;20032;-71
2022/04/15 06:18:05;;;;;;;34.38;14.82;;;;;;;6.99;93.91;102642.19;5089291;28;20032;-70
2022/04/15 06:20:30;;;;;;;29.15;13.60;;;;;;;7.05;93.41;102644.75;5096698;28;20055;-68
2022/04/15 06:22:56;;;;;;;35.50;15.10;;;;;;;7.07;93.55;102650.09;5090221;28;20027;-68
2022/04/15 06:25:22;;;;;;;28.15;14.15;;;;;;;7.11;93.44;102651.78;5086141;28;20036;-70
2022/04/15 06:27:49;;;;;;;32.97;14.90;;;;;;;7.14;93.71;102651.72;5089778;28;20035;-69
2022/04/15 06:30:15;;;;;;;30.27;14.50;;;;;;;7.17;93.35;102646.19;5086618;28;20077;-75
2022/04/15 06:32:40;;;;;;;28.88;14.45;;;;;;;7.22;93.16;102655.06;5088077;28;20449;-71
2022/04/15 06:35:06;;;;;;;31.08;14.77;;;;;;;7.29;93.23;102651.25;5081528;28;20043;-68
2022/04/15 06:37:32;;;;;;;28.23;14.32;;;;;;;7.34;93.17;102654.72;5073327;28;20035;-75
2022/04/15 06:39:58;;;;;;;31.95;15.07;;;;;;;7.38;93.12;102663.63;5095261;28;20036;-75
2022/04/15 06:42:24;;;;;;;26.20;13.57;;;;;;;7.37;93.25;102670.88;5090274;28;20671;-69
2022/04/15 06:44:51;;;;;;;33.83;14.57;;;;;;;7.40;92.80;102664.47;5086968;28;20119;-73
2022/04/15 06:47:16;;;;;;;34.92;14.85;;;;;;;7.47;92.96;102667.91;5088616;28;20097;-69
2022/04/15 06:49:43;;;;;;;36.65;16.05;;;;;;;7.48;93.10;102666.97;5091522;28;20122;-67
2022/04/15 06:52:08;;;;;;;31.45;14.65;;;;;;;7.49;92.92;102675.03;5088206;28;20063;-75
2022/04/15 06:54:34;;;;;;;31.55;14.68;;;;;;;7.52;92.04;102679.47;5087071;28;20067;-69
2022/04/15 06:56:59;;;;;;;28.15;14.80;;;;;;;7.56;92.54;102678.44;5088974;28;20032;-71
2022/04/15 06:59:25;;;;;;;31.63;14.73;;;;;;;7.59;92.59;102683.75;5086558;28;20046;-76
2022/04/15 07:01:50;;;;;;;28.83;13.10;;;;;;;7.61;92.11;102685.50;5090356;28;20055;-71
2022/04/15 07:04:16;;;;;;;25.00;13.63;;;;;;;7.67;92.78;102679.00;5088185;28;20069;-77
2022/04/15 07:06:42;;;;;;;26.38;13.52;;;;;;;7.68;92.23;102680.75;5093641;28;20491;-70
2022/04/15 07:09:07;;;;;;;24.80;13.80;;;;;;;7.73;92.21;102684.22;5087065;28;20040;-76
2022/04/15 07:11:32;;;;;;;21.58;13.35;;;;;;;7.76;92.07;102681.41;5089027;28;20659;-69
2022/04/15 07:13:58;;;;;;;27.73;14.63;;;;;;;7.79;92.29;102680.44;5077660;28;20459;-69
2022/04/15 07:16:23;;;;;;;28.67;14.25;;;;;;;7.80;92.10;102682.22;5091205;28;20712;-72
2022/04/15 07:18:48;;;;;;;25.63;12.20;;;;;;;7.86;91.51;102690.16;5094706;28;20086;-67
2022/04/15 07:21:14;;;;;;;23.55;11.98;;;;;;;7.91;91.39;102691.75;5086347;28;20067;-77
2022/04/15 07:23:39;;;;;;;23.58;12.05;;;;;;;7.92;90.85;102692.66;5086891;28;20472;-69
2022/04/15 07:26:04;;;;;;;23.55;12.40;;;;;;;7.93;91.27;102694.44;5087112;28;20048;-70
2022/04/15 07:28:30;;;;;;;26.73;12.13;;;;;;;7.91;91.04;102690.88;5088858;28;20410;-76
2022/04/15 07:30:55;;;;;;;25.67;12.88;;;;;;;7.94;91.63;102698.94;5092520;28;20539;-68
2022/04/15 07:33:20;;;;;;;29.08;13.02;;;;;;;7.99;91.83;102702.38;5090850;28;20051;-72
2022/04/15 07:35:46;;;;;;;37.78;14.43;;;;;;;8.05;91.49;102702.16;5096689;28;20074;-70
2022/04/15 07:38:11;;;;;;;27.02;13.27;;;;;;;8.14;90.77;102707.28;5090868;28;20036;-71
2022/04/15 07:40:37;;;;;;;25.67;13.25;;;;;;;8.15;90.72;102705.47;5093928;28;20116;-72
2022/04/15 07:43:02;;;;;;;27.88;13.20;;;;;;;8.22;90.97;102703.47;5100465;28;20027;-72
2022/04/15 07:45:28;;;;;;;26.75;12.45;;;;;;;8.30;90.32;102701.34;5090580;28;20024;-72
2022/04/15 07:47:53;;;;;;;18.42;10.80;;;;;;;8.33;88.85;102709.41;5095624;28;20024;-68
2022/04/15 07:50:23;;;;;;;17.55;10.15;;;;;;;8.31;87.96;102709.47;5091579;28;20054;-71
2022/04/15 07:52:50;;;;;;;21.60;9.70;;;;;;;8.33;87.47;102703.97;5094210;28;20115;-71
2022/04/15 07:55:16;;;;;;;17.60;9.73;;;;;;;8.39;87.83;102703.81;5091517;28;20040;-71
2022/04/15 07:57:42;;;;;;;19.35;9.52;;;;;;;8.46;87.62;102707.22;5090638;28;20040;-72
2022/04/15 08:00:08;;;;;;;19.73;10.52;;;;;;;8.51;87.80;102719.69;5093313;28;20075;-71
2022/04/15 08:02:37;;;;;;;21.40;11.18;;;;;;;8.51;87.87;102710.66;5091280;28;20047;-68
2022/04/15 08:05:03;;;;;;;20.60;10.98;;;;;;;8.51;87.66;102707.94;5091650;28;20036;-67
2022/04/15 08:07:28;;;;;;;25.10;12.23;;;;;;;8.54;87.91;102708.72;5107269;27;20015;-69
2022/04/15 08:09:53;;;;;;;21.88;11.98;;;;;;;8.63;88.51;102705.72;5111875;27;20104;-69
2022/04/15 08:12:19;;;;;;;21.02;11.27;;;;;;;8.79;87.40;102703.34;5095197;28;20043;-76
2022/04/15 08:14:44;;;;;;;18.65;10.00;;;;;;;8.91;85.45;102712.88;5094656;28;20044;-71
2022/04/15 08:17:09;;;;;;;16.63;9.98;;;;;;;8.95;85.28;102709.09;5094116;28;20049;-68
2022/04/15 08:19:35;;;;;;;16.73;9.00;;;;;;;9.07;84.88;102711.38;5094307;28;20384;-71
2022/04/15 08:22:01;;;;;;;15.57;9.02;;;;;;;9.31;85.10;102701.44;5090385;28;20036;-75
2022/04/15 08:24:27;;;;;;;14.50;7.13;;;;;;;9.57;80.65;102703.19;5090621;28;20043;-75
2022/04/15 08:26:56;;;;;;;14.23;7.80;;;;;;;9.87;82.38;102706.50;5095184;28;20035;-71
2022/04/15 08:29:21;;;;;;;13.10;8.38;;;;;;;10.11;80.96;102704.66;5099839;28;20028;-68
2022/04/15 08:31:47;;;;;;;10.52;7.35;;;;;;;10.10;76.75;102708.31;5094715;28;20536;-68
2022/04/15 08:34:12;;;;;;;14.70;9.00;;;;;;;10.12;77.43;102714.59;5090288;28;20028;-66
2022/04/15 08:36:37;;;;;;;13.40;7.40;;;;;;;10.12;77.87;102711.88;5090230;28;20081;-66
2022/04/15 08:39:02;;;;;;;11.40;7.50;;;;;;;10.19;77.18;102716.09;5089511;28;20039;-71
2022/04/15 08:41:35;;;;;;;13.73;7.35;;;;;;;10.16;77.13;102718.94;5087959;28;21493;-68
2022/04/15 08:44:03;;;;;;;14.50;7.53;;;;;;;10.34;77.93;102720.06;5089161;28;20476;-75
2022/04/15 08:46:29;;;;;;;11.85;7.47;;;;;;;10.78;78.22;102720.03;5089649;28;20086;-71
2022/04/15 08:48:55;;;;;;;10.93;7.18;;;;;;;11.29;75.57;102718.66;5093796;28;20035;-68
2022/04/15 08:51:20;;;;;;;11.25;7.43;;;;;;;11.39;72.36;102732.75;5100017;28;20054;-71
2022/04/15 08:53:48;;;;;;;12.52;7.30;;;;;;;11.61;74.43;102725.38;5085687;28;20085;-76
2022/04/15 08:56:14;;;;;;;11.35;7.47;;;;;;;11.88;70.98;102728.63;5085169;28;20028;-69
2022/04/15 08:58:40;;;;;;;10.75;7.55;;;;;;;12.44;73.04;102716.78;5094520;28;20051;-68
2022/04/15 09:01:07;;;;;;;11.23;6.82;;;;;;;12.44;68.36;102733.16;5099729;28;20398;-72
2022/04/15 09:03:32;;;;;;;10.05;7.28;;;;;;;12.34;70.23;102733.72;5091354;28;20028;-67
2022/04/15 09:05:58;;;;;;;13.55;7.78;;;;;;;12.39;68.78;102739.81;5093469;28;20065;-71
2022/04/15 09:08:25;;;;;;;11.30;7.05;;;;;;;12.61;69.80;102729.59;5104098;28;20106;-71
2022/04/15 09:10:59;;;;;;;10.07;6.55;;;;;;;12.67;66.52;102739.31;5099145;28;20036;-68
2022/04/15 09:13:33;;;;;;;10.00;6.60;;;;;;;12.63;66.84;102726.78;5090804;28;20040;-68
2022/04/15 09:16:01;;;;;;;11.00;6.32;;;;;;;13.16;68.09;102734.94;5094278;28;20479;-68
2022/04/15 09:18:31;;;;;;;10.73;7.38;;;;;;;13.33;65.50;102739.50;5102944;28;20462;-69
2022/04/15 09:21:17;;;;;;;7.97;6.35;;;;;;;13.05;66.61;102742.78;5098801;28;20066;-74
2022/04/15 09:23:51;;;;;;;10.07;6.38;;;;;;;12.79;68.69;102744.16;5095031;28;20066;-66
2022/04/15 09:26:16;;;;;;;11.38;6.75;;;;;;;12.83;65.49;102743.03;5092175;28;20044;-68
2022/04/15 09:28:42;;;;;;;13.43;6.07;;;;;;;12.99;67.09;102745.84;5093498;28;20046;-69
2022/04/15 09:31:13;;;;;;;9.27;6.13;;;;;;;13.14;66.83;102736.84;5078361;28;20456;-68
2022/04/15 09:33:51;;;;;;;9.30;6.00;;;;;;;13.21;66.41;102743.75;5087563;28;20059;-71
2022/04/15 09:36:31;;;;;;;10.10;5.47;;;;;;;13.71;67.53;102744.78;5091785;28;20032;-71
2022/04/15 09:39:10;;;;;;;10.27;6.05;;;;;;;14.23;63.10;102747.31;5094912;28;20036;-74
2022/04/15 09:41:40;;;;;;;7.82;5.90;;;;;;;14.78;61.46;102747.72;5089557;28;20036;-70
2022/04/15 09:44:06;;;;;;;7.68;5.20;;;;;;;15.16;58.94;102754.59;5091576;28;20071;-67
2022/04/15 09:46:31;;;;;;;9.07;5.43;;;;;;;15.40;60.42;102749.44;5092612;28;20043;-72
2022/04/15 09:49:06;;;;;;;10.23;5.65;;;;;;;15.50;59.47;102754.25;5088470;28;20027;-75
2022/04/15 09:51:52;;;;;;;8.30;5.40;;;;;;;15.41;55.98;102751.22;5099407;28;20035;-75
2022/04/15 09:54:23;;;;;;;7.63;5.40;;;;;;;15.15;56.60;102758.28;5089352;28;20450;-65
2022/04/15 09:56:50;;;;;;;9.27;5.00;;;;;;;14.86;57.63;102749.09;5092521;28;20382;-65
2022/04/15 09:59:17;;;;;;;8.13;5.32;;;;;;;15.09;58.05;102747.72;5096333;28;20044;-67
2022/04/15 10:01:45;;;;;;;8.13;5.75;;;;;;;15.28;56.98;102742.84;5088426;28;20085;-67
2022/04/15 10:04:12;;;;;;;8.00;5.22;;;;;;;15.79;59.36;102746.06;5089871;28;20042;-69
2022/04/15 10:06:40;;;;;;;8.10;5.50;;;;;;;16.18;54.62;102747.19;5107293;28;20030;-70
2022/04/15 10:09:09;;;;;;;9.52;5.38;;;;;;;15.76;54.26;102751.75;5109218;27;20479;-66
2022/04/15 10:11:35;;;;;;;7.43;4.97;;;;;;;15.32;58.48;102748.06;5101302;28;20119;-68
2022/04/15 10:14:02;;;;;;;9.63;5.75;;;;;;;15.21;56.63;102750.59;5103960;28;20542;-71
2022/04/15 10:16:30;;;;;;;6.18;5.40;;;;;;;14.98;56.15;102746.50;5099017;28;20370;-67
2022/04/15 10:18:59;;;;;;;6.75;5.55;;;;;;;15.05;56.51;102747.88;5105170;28;20483;-67
2022/04/15 10:21:25;;;;;;;7.35;5.43;;;;;;;15.39;54.88;102743.09;5108809;28;20121;-73
2022/04/15 10:23:51;;;;;;;11.93;5.28;;;;;;;15.81;57.01;102744.13;5109429;28;20493;-70
2022/04/15 10:26:18;;;;;;;6.70;5.03;;;;;;;15.84;54.03;102748.50;5095298;28;20042;-70
2022/04/15 10:28:46;;;;;;;6.57;4.95;;;;;;;16.07;58.06;102743.28;5099774;28;20112;-67
2022/04/15 10:31:14;;;;;;;9.68;5.10;;;;;;;16.01;52.63;102745.56;5090215;28;20028;-66
2022/04/15 10:33:40;;;;;;;10.23;5.78;;;;;;;15.79;52.87;102744.19;5097863;28;20042;-67
2022/04/15 10:36:14;;;;;;;11.13;5.70;;;;;;;15.40;55.26;102744.84;5091734;28;20047;-70
2022/04/15 10:39:25;;;;;;;9.40;5.68;;;;;;;14.84;57.46;102737.38;5088694;28;20143;-65
2022/04/15 10:41:52;;;;;;;5.88;5.15;;;;;;;14.68;58.08;102735.53;5057551;28;20040;-70
2022/04/15 10:44:33;;;;;;;5.97;5.40;;;;;;;14.70;58.70;102730.84;5064114;28;20040;-67
2022/04/15 10:47:17;;;;;;;8.70;6.22;;;;;;;14.78;57.82;102739.50;5075054;28;20040;-71
2022/04/15 10:50:06;;;;;;;8.45;6.28;;;;;;;14.82;58.67;102734.69;5089003;28;20036;-71
2022/04/15 10:52:36;;;;;;;7.63;5.60;;;;;;;15.01;57.43;102732.63;5093423;28;20152;-66
2022/04/15 10:55:10;;;;;;;8.48;5.57;;;;;;;15.59;58.54;102727.22;5089613;28;20067;-65
2022/04/15 10:57:37;;;;;;;10.75;5.82;;;;;;;16.28;56.95;102734.66;5088291;28;20032;-72
2022/04/15 11:03:27;;;;;;;6.38;5.30;;;;;;;16.68;56.04;102730.06;5089502;28;20361;-66
2022/04/15 11:05:55;;;;;;;6.15;5.45;;;;;;;16.16;52.79;102729.94;5103442;28;20055;-74
2022/04/15 11:08:23;;;;;;;9.65;5.28;;;;;;;16.03;53.30;102727.13;5111349;28;20031;-72
2022/04/15 11:10:51;;;;;;;10.55;4.93;;;;;;;16.38;56.10;102730.28;5111948;28;20042;-68
2022/04/15 11:13:39;;;;;;;6.25;5.65;;;;;;;16.47;53.02;102729.69;5101089;28;20425;-71
2022/04/15 11:30:49;;;;;;;7.72;5.50;;;;;;;15.32;54.07;102726.13;5090943;28;20620;-74
2022/04/15 11:33:15;;;;;;;8.05;5.80;;;;;;;15.25;53.24;102738.47;5091716;28;20120;-64
2022/04/15 11:35:41;;;;;;;6.40;5.45;;;;;;;15.28;53.73;102724.53;5094008;28;20134;-73
2022/04/15 11:38:13;;;;;;;6.90;5.63;;;;;;;15.41;53.09;102726.53;5108365;28;20042;-70
2022/04/15 11:40:43;;;;;;;9.07;6.47;;;;;;;15.88;55.56;102726.25;5105215;28;20685;-72